Time;durP1;ratioP1;P1;durP2;ratioP2;P2;SDS_P1;SDS_P2;PMS_P1;PMS_P2;Temp;Humidity;BMP_temperature;BMP_pressure;BME280_temperature;BME280_humidity;BME280_pressure;Samples;Min_cycle;Max_cycle;Signal;HPM_P1;HPM_P2
2023/12/27 00:00:21;;;;;;;8.13;0.60;;;;;;;8.17;67.55;95733.84;5132190;27;20438;-54
2023/12/27 00:02:50;;;;;;;0.40;0.30;;;;;;;8.26;68.02;95735.00;5132000;28;20640;-54
2023/12/27 00:05:19;;;;;;;1.43;1.33;;;;;;;8.29;68.20;95730.09;5132446;28;20446;-52
2023/12/27 00:07:48;;;;;;;1.03;0.90;;;;;;;8.22;67.37;95733.91;5132245;27;20435;-54
2023/12/27 00:10:17;;;;;;;5.60;1.33;;;;;;;8.11;68.33;95735.63;5136639;27;20430;-53
2023/12/27 00:12:45;;;;;;;0.57;0.57;;;;;;;8.10;67.58;95731.38;5135607;27;20466;-53
2023/12/27 00:15:14;;;;;;;0.40;0.30;;;;;;;7.99;68.26;95734.13;5135820;27;20491;-54
2023/12/27 00:17:43;;;;;;;0.73;0.70;;;;;;;7.87;68.63;95738.69;5135766;27;20825;-53
2023/12/27 00:20:12;;;;;;;0.40;0.40;;;;;;;7.73;69.61;95734.78;5135636;27;20981;-53
2023/12/27 00:22:42;;;;;;;2.40;0.50;;;;;;;8.05;68.51;95749.78;5136175;27;20442;-54
2023/12/27 00:25:11;;;;;;;1.23;1.23;;;;;;;8.13;67.96;95744.09;5136221;27;20466;-53
2023/12/27 00:27:39;;;;;;;0.40;0.40;;;;;;;7.98;69.00;95735.97;5136202;27;20948;-54
2023/12/27 00:30:09;;;;;;;0.90;0.53;;;;;;;8.00;68.56;95739.16;5135146;27;20438;-54
2023/12/27 00:32:37;;;;;;;2.67;1.00;;;;;;;8.01;68.12;95727.56;5136239;27;20473;-53
2023/12/27 00:35:07;;;;;;;0.50;0.30;;;;;;;8.12;68.78;95724.00;5136107;27;20445;-55
2023/12/27 00:37:36;;;;;;;0.33;0.30;;;;;;;8.37;67.87;95747.34;5136103;27;20474;-54
2023/12/27 00:40:07;;;;;;;0.40;0.40;;;;;;;7.76;69.22;95748.31;5135501;27;20427;-53
2023/12/27 00:42:36;;;;;;;3.30;1.10;;;;;;;7.06;72.32;95750.53;5135801;27;20446;-53
2023/12/27 00:45:05;;;;;;;1.20;1.20;;;;;;;7.24;72.36;95716.06;5135604;27;20442;-53
2023/12/27 00:47:34;;;;;;;8.40;1.67;;;;;;;6.89;73.30;95747.06;5136164;27;20845;-53
2023/12/27 00:50:02;;;;;;;3.40;2.50;;;;;;;7.03;72.96;95751.03;5136154;27;20443;-53
2023/12/27 00:52:31;;;;;;;1.37;0.80;;;;;;;7.39;70.98;95750.59;5135309;27;20486;-53
2023/12/27 00:55:00;;;;;;;1.30;1.30;;;;;;;7.46;71.35;95750.44;5134479;27;20438;-54
2023/12/27 00:57:30;;;;;;;2.63;1.90;;;;;;;7.64;71.35;95745.72;5134674;27;21049;-54
2023/12/27 00:59:59;;;;;;;1.57;1.50;;;;;;;7.73;70.08;95753.25;5135484;27;20974;-54
2023/12/27 01:02:28;;;;;;;2.07;1.70;;;;;;;7.57;70.82;95760.13;5134884;27;20442;-54
2023/12/27 01:04:56;;;;;;;4.70;1.47;;;;;;;7.02;70.65;95692.25;5135248;27;20437;-54
2023/12/27 01:07:25;;;;;;;2.70;2.50;;;;;;;6.09;71.43;95554.97;5135616;27;20441;-54
2023/12/27 01:09:54;;;;;;;2.73;2.27;;;;;;;6.92;73.20;95741.31;5134970;27;20448;-53
2023/12/27 01:12:22;;;;;;;3.53;2.23;;;;;;;7.25;72.32;95749.31;5134932;27;20481;-53
2023/12/27 01:14:52;;;;;;;8.33;2.47;;;;;;;7.23;72.22;95740.84;5135473;27;20434;-53
2023/12/27 01:17:21;;;;;;;1.70;1.60;;;;;;;7.41;71.61;95737.19;5135532;27;20515;-53
2023/12/27 01:19:49;;;;;;;3.30;1.27;;;;;;;7.09;71.84;95726.34;5134307;27;20443;-54
2023/12/27 01:22:18;;;;;;;15.43;1.20;;;;;;;7.45;70.92;95759.38;5121545;27;20816;-54
2023/12/27 01:24:46;;;;;;;1.20;1.00;;;;;;;7.50;70.52;95764.75;5135181;27;20517;-54
2023/12/27 01:27:15;;;;;;;0.80;0.80;;;;;;;7.43;70.98;95764.09;5134618;27;20495;-54
2023/12/27 01:29:44;;;;;;;1.80;1.27;;;;;;;7.29;71.75;95776.78;5135099;27;20929;-53
2023/12/27 01:32:14;;;;;;;3.20;1.80;;;;;;;7.42;70.80;95765.13;5135108;27;20635;-54
2023/12/27 01:34:42;;;;;;;1.93;1.83;;;;;;;7.55;70.56;95775.38;5134837;27;20442;-54
2023/12/27 01:37:11;;;;;;;1.33;1.23;;;;;;;7.51;70.12;95777.69;5134309;27;20499;-53
2023/12/27 01:39:40;;;;;;;4.30;1.30;;;;;;;7.21;71.44;95779.78;5133937;27;20446;-54
2023/12/27 01:42:08;;;;;;;0.43;0.43;;;;;;;7.28;72.43;95777.84;5134310;27;20439;-53
2023/12/27 01:44:37;;;;;;;2.47;1.83;;;;;;;7.38;71.33;95777.22;5132811;27;20476;-53
2023/12/27 01:47:06;;;;;;;1.10;1.00;;;;;;;7.53;72.25;95769.56;5134455;27;20431;-54
2023/12/27 01:49:36;;;;;;;0.60;0.60;;;;;;;7.63;71.46;95769.72;5134016;27;20474;-55
2023/12/27 01:52:09;;;;;;;0.63;0.60;;;;;;;7.31;71.40;95763.38;5134438;27;20478;-54
2023/12/27 01:54:38;;;;;;;5.77;0.57;;;;;;;7.28;72.17;95769.94;5134960;27;20572;-54
2023/12/27 01:57:07;;;;;;;1.33;0.70;;;;;;;7.53;71.68;95769.56;5134251;27;20479;-54
2023/12/27 01:59:36;;;;;;;1.20;0.70;;;;;;;7.56;71.39;95767.22;5134707;27;20466;-53
2023/12/27 02:02:05;;;;;;;1.80;1.70;;;;;;;7.65;70.24;95760.53;5134701;27;20847;-54
2023/12/27 02:04:35;;;;;;;1.97;0.90;;;;;;;7.70;70.77;95762.44;5134032;27;20461;-54
2023/12/27 02:07:05;;;;;;;4.70;1.33;;;;;;;7.73;70.26;95759.31;5133967;27;20573;-53
2023/12/27 02:09:49;;;;;;;2.10;1.33;;;;;;;7.62;70.34;95763.63;5134224;27;20523;-54
2023/12/27 02:12:25;;;;;;;0.63;0.63;;;;;;;7.55;70.00;95759.56;5133689;27;21001;-54
2023/12/27 02:14:54;;;;;;;2.43;1.10;;;;;;;7.45;70.39;95760.19;5133545;27;20435;-54
2023/12/27 02:17:24;;;;;;;1.23;1.13;;;;;;;7.40;70.44;95767.22;5132094;27;21071;-54
2023/12/27 02:19:55;;;;;;;5.27;2.93;;;;;;;7.49;71.57;95753.41;5133687;27;20475;-54
2023/12/27 02:22:26;;;;;;;0.70;0.57;;;;;;;7.17;71.22;95743.59;5133724;27;20452;-54
2023/12/27 02:24:56;;;;;;;0.90;0.90;;;;;;;7.15;72.17;95738.59;5134243;27;20921;-54
2023/12/27 02:27:25;;;;;;;0.47;0.47;;;;;;;7.29;70.97;95737.22;5133492;27;20453;-54
2023/12/27 02:29:54;;;;;;;4.83;1.50;;;;;;;7.49;71.47;95731.50;5133464;27;20441;-54
2023/12/27 02:32:23;;;;;;;1.77;0.60;;;;;;;7.48;71.37;95727.28;5131699;27;20488;-54
2023/12/27 02:34:52;;;;;;;0.73;0.50;;;;;;;6.99;70.83;95655.00;5133584;27;20480;-54
2023/12/27 02:37:21;;;;;;;0.40;0.30;;;;;;;7.57;71.31;95737.19;5133872;27;20447;-54
2023/12/27 02:39:50;;;;;;;3.83;0.70;;;;;;;7.58;70.35;95738.78;5132692;27;20438;-54
2023/12/27 02:42:20;;;;;;;0.40;0.30;;;;;;;7.55;70.00;95765.63;5133591;27;20438;-54
2023/12/27 02:44:48;;;;;;;0.47;0.33;;;;;;;7.47;70.85;95773.13;5132394;27;20938;-54
2023/12/27 02:47:17;;;;;;;0.63;0.63;;;;;;;7.66;73.26;95772.66;5133449;27;20567;-54
2023/12/27 02:49:45;;;;;;;1.00;0.37;;;;;;;7.81;72.28;95773.97;5132279;27;20449;-54
2023/12/27 02:52:14;;;;;;;0.40;0.30;;;;;;;7.58;73.13;95769.63;5132900;27;20466;-53
2023/12/27 02:54:43;;;;;;;0.60;0.60;;;;;;;7.57;74.74;95768.84;5132925;27;20985;-54
2023/12/27 02:57:12;;;;;;;0.63;0.60;;;;;;;7.21;73.76;95773.75;5132909;27;20442;-53
2023/12/27 02:59:42;;;;;;;0.40;0.30;;;;;;;7.29;73.34;95770.69;5132615;27;20450;-54
2023/12/27 03:02:10;;;;;;;0.97;0.73;;;;;;;7.12;72.83;95752.22;5132859;27;20431;-53
2023/12/27 03:04:39;;;;;;;0.67;0.60;;;;;;;7.28;72.91;95756.75;5132623;27;20930;-53
2023/12/27 03:07:08;;;;;;;0.40;0.40;;;;;;;7.39;72.00;95755.88;5132071;27;20453;-54
2023/12/27 03:09:37;;;;;;;0.87;0.60;;;;;;;7.44;71.85;95768.31;5132255;27;20437;-54
2023/12/27 03:12:06;;;;;;;0.50;0.50;;;;;;;7.49;71.68;95769.22;5133224;27;20823;-54
2023/12/27 03:14:34;;;;;;;4.83;0.50;;;;;;;7.47;72.28;95771.31;5131059;27;20566;-54
2023/12/27 03:17:04;;;;;;;1.37;0.77;;;;;;;7.45;72.56;95770.75;5132602;27;20435;-54
2023/12/27 03:19:33;;;;;;;0.70;0.63;;;;;;;7.49;71.67;95765.78;5132825;27;20462;-54
2023/12/27 03:22:02;;;;;;;0.70;0.70;;;;;;;7.48;71.32;95767.63;5132141;27;20456;-54
2023/12/27 03:24:30;;;;;;;0.50;0.40;;;;;;;7.40;72.27;95778.56;5132956;27;20438;-54
2023/12/27 03:26:59;;;;;;;0.77;0.77;;;;;;;7.33;73.52;95767.38;5132307;27;20525;-54
2023/12/27 03:29:28;;;;;;;0.40;0.30;;;;;;;7.34;72.54;95790.06;5132347;27;20451;-54
2023/12/27 03:31:56;;;;;;;1.03;1.03;;;;;;;7.30;70.60;95788.94;5132784;27;20948;-54
2023/12/27 03:34:26;;;;;;;0.57;0.57;;;;;;;7.37;70.39;95788.78;5132493;27;21047;-54
2023/12/27 03:36:55;;;;;;;1.20;1.00;;;;;;;7.31;70.31;95792.38;5132772;27;20491;-54
2023/12/27 03:39:24;;;;;;;0.87;0.87;;;;;;;7.27;70.32;95791.25;5132745;27;20438;-54
2023/12/27 03:41:53;;;;;;;0.60;0.60;;;;;;;7.27;70.40;95797.31;5132288;27;21089;-54
2023/12/27 03:44:21;;;;;;;1.07;0.70;;;;;;;7.14;71.71;95805.50;5131614;27;20434;-54
2023/12/27 03:46:50;;;;;;;0.50;0.40;;;;;;;7.03;71.29;95801.09;5121582;27;20434;-54
2023/12/27 03:49:18;;;;;;;0.47;0.47;;;;;;;7.10;72.50;95804.38;5132344;27;20435;-53
2023/12/27 03:51:49;;;;;;;5.03;0.97;;;;;;;6.94;71.47;95768.22;5131613;27;20481;-53
2023/12/27 03:54:17;;;;;;;2.37;1.40;;;;;;;6.93;70.82;95824.63;5130858;27;20492;-53
2023/12/27 03:56:46;;;;;;;0.50;0.50;;;;;;;7.00;70.98;95820.00;5104268;27;20509;-53
2023/12/27 03:59:15;;;;;;;1.90;1.80;;;;;;;6.99;70.23;95810.50;5131276;27;20525;-53
2023/12/27 04:01:43;;;;;;;4.83;1.27;;;;;;;7.04;70.68;95806.13;5131580;27;20441;-53
2023/12/27 04:04:13;;;;;;;0.50;0.50;;;;;;;7.01;71.84;95793.41;5130705;27;20961;-53
2023/12/27 04:06:42;;;;;;;0.90;0.70;;;;;;;6.68;70.55;95766.94;5132032;28;20458;-53
2023/12/27 04:09:13;;;;;;;0.60;0.43;;;;;;;6.70;70.87;95803.59;5131808;28;20438;-53
2023/12/27 04:11:45;;;;;;;0.60;0.60;;;;;;;6.80;70.52;95809.88;5132284;27;20449;-53
2023/12/27 04:14:16;;;;;;;1.30;1.20;;;;;;;6.80;70.97;95809.88;5131589;28;20470;-53
2023/12/27 04:16:44;;;;;;;1.33;0.93;;;;;;;6.85;70.65;95806.53;5131962;27;20434;-53
2023/12/27 04:19:13;;;;;;;0.80;0.80;;;;;;;6.55;70.26;95782.22;5131482;27;20443;-53
2023/12/27 04:21:42;;;;;;;3.40;2.90;;;;;;;6.87;70.44;95841.34;5131701;28;20879;-53
2023/12/27 04:24:12;;;;;;;2.87;1.47;;;;;;;6.69;70.30;95850.22;5131746;28;20438;-53
2023/12/27 04:26:42;;;;;;;1.80;1.53;;;;;;;6.55;70.80;95833.06;5132209;27;20438;-53
2023/12/27 04:29:11;;;;;;;1.97;1.87;;;;;;;6.54;70.57;95847.25;5131219;27;20510;-53
2023/12/27 04:31:40;;;;;;;0.83;0.60;;;;;;;6.80;72.09;95856.50;5130527;28;20462;-54
2023/12/27 04:34:09;;;;;;;2.27;1.57;;;;;;;6.62;70.52;95867.16;5130860;28;20458;-54
2023/12/27 04:36:38;;;;;;;6.20;0.90;;;;;;;6.66;72.94;95863.84;5131008;28;20442;-54
2023/12/27 04:39:07;;;;;;;3.00;2.90;;;;;;;6.06;71.06;95786.97;5130667;28;20450;-54
2023/12/27 04:41:37;;;;;;;0.70;0.70;;;;;;;6.57;71.72;95859.97;5131058;27;20446;-54
2023/12/27 04:44:06;;;;;;;2.63;1.27;;;;;;;6.67;71.40;95868.06;5130630;27;20442;-54
2023/12/27 04:46:36;;;;;;;4.47;0.90;;;;;;;6.70;70.72;95856.28;5130971;28;20898;-54
2023/12/27 04:49:08;;;;;;;2.23;1.00;;;;;;;6.13;73.25;95865.78;5131880;28;20457;-54
2023/12/27 04:51:37;;;;;;;2.53;2.33;;;;;;;6.48;72.29;95885.03;5130421;27;20527;-54
2023/12/27 04:54:06;;;;;;;0.60;0.60;;;;;;;6.74;71.69;95875.84;5130841;27;20482;-54
2023/12/27 04:56:34;;;;;;;0.63;0.57;;;;;;;6.80;71.06;95882.84;5134384;27;20433;-54
2023/12/27 04:59:04;;;;;;;0.53;0.50;;;;;;;6.71;71.09;95876.31;5134366;27;20438;-54
2023/12/27 05:01:33;;;;;;;2.93;1.80;;;;;;;6.58;71.67;95901.06;5135787;27;20457;-54
2023/12/27 05:04:01;;;;;;;3.17;2.23;;;;;;;6.61;71.61;95908.50;5134866;27;20815;-54
2023/12/27 05:06:30;;;;;;;1.33;1.23;;;;;;;6.76;71.91;95906.19;5107056;27;20441;-54
2023/12/27 05:09:03;;;;;;;0.97;0.97;;;;;;;6.93;74.04;95906.31;5121109;27;20442;-54
2023/12/27 05:11:32;;;;;;;1.67;1.57;;;;;;;6.02;75.77;95906.06;5135338;27;20462;-54
2023/12/27 05:14:01;;;;;;;3.30;1.67;;;;;;;6.26;78.04;95923.47;5134687;27;20470;-54
2023/12/27 05:16:31;;;;;;;11.03;0.90;;;;;;;6.41;76.08;95908.03;5135069;27;20563;-55
2023/12/27 05:18:59;;;;;;;0.67;0.67;;;;;;;6.56;75.60;95903.13;5134834;27;20426;-54
2023/12/27 05:21:29;;;;;;;3.53;1.90;;;;;;;6.70;74.90;95901.88;5135357;27;20439;-54
2023/12/27 05:23:57;;;;;;;1.23;1.17;;;;;;;6.72;75.41;95902.44;5134561;27;20493;-54
2023/12/27 05:26:26;;;;;;;2.10;1.20;;;;;;;6.87;75.46;95908.03;5134687;27;20487;-55
2023/12/27 05:28:55;;;;;;;2.40;1.00;;;;;;;6.48;74.14;95847.38;5134465;27;20442;-54
2023/12/27 05:31:24;;;;;;;1.00;1.00;;;;;;;6.21;76.66;95920.72;5134733;27;20441;-55
2023/12/27 05:33:54;;;;;;;1.23;0.70;;;;;;;6.43;77.72;95915.69;5135095;27;20430;-55
2023/12/27 05:36:23;;;;;;;0.70;0.50;;;;;;;6.87;76.15;95930.94;5134543;27;20944;-54
2023/12/27 05:38:52;;;;;;;0.50;0.40;;;;;;;6.36;76.02;95940.31;5134857;27;20789;-54
2023/12/27 05:41:24;;;;;;;1.00;0.90;;;;;;;6.39;78.21;95934.59;5133901;27;20452;-56
2023/12/27 05:43:54;;;;;;;1.23;1.17;;;;;;;6.43;76.75;95934.94;5101096;28;20955;-54
2023/12/27 05:46:23;;;;;;;1.70;1.60;;;;;;;6.73;76.90;95922.47;5128815;27;21027;-54
2023/12/27 05:48:51;;;;;;;0.70;0.70;;;;;;;6.75;75.54;95922.25;5126510;27;20870;-54
2023/12/27 05:51:22;;;;;;;3.30;1.67;;;;;;;6.67;73.90;95925.22;5128435;27;21025;-54
2023/12/27 05:53:51;;;;;;;5.30;1.10;;;;;;;6.74;72.96;95931.97;5131043;27;20434;-54
2023/12/27 05:56:20;;;;;;;2.67;2.53;;;;;;;5.74;76.12;95948.72;5134700;27;20919;-55
2023/12/27 05:58:48;;;;;;;2.33;2.10;;;;;;;5.41;81.21;95901.03;5134283;27;21010;-54
2023/12/27 06:01:18;;;;;;;3.37;1.27;;;;;;;5.45;83.07;95958.19;5134419;27;20471;-54
2023/12/27 06:03:47;;;;;;;4.07;3.20;;;;;;;5.56;82.05;95948.78;5134183;27;20501;-54
2023/12/27 06:06:16;;;;;;;2.43;1.90;;;;;;;5.56;83.14;95960.09;5133698;27;20438;-54
2023/12/27 06:08:46;;;;;;;1.93;1.60;;;;;;;6.04;80.29;95967.16;5134210;27;20442;-54
2023/12/27 06:11:14;;;;;;;3.10;2.80;;;;;;;6.29;77.86;95965.16;5134183;27;20434;-55
2023/12/27 06:13:43;;;;;;;1.77;1.70;;;;;;;6.48;75.74;95953.47;5134348;27;20933;-54
2023/12/27 06:16:15;;;;;;;3.03;0.77;;;;;;;6.72;75.06;95963.03;5134002;27;20477;-55
2023/12/27 06:18:44;;;;;;;6.67;2.43;;;;;;;6.69;75.13;95974.00;5134565;27;20442;-54
2023/12/27 06:21:12;;;;;;;1.30;1.20;;;;;;;6.83;74.46;95967.47;5123022;27;20435;-54
2023/12/27 06:23:41;;;;;;;1.93;1.83;;;;;;;5.79;77.30;95904.16;5132810;27;20459;-54
2023/12/27 06:26:11;;;;;;;14.83;6.10;;;;;;;5.64;79.20;95974.75;5133064;27;20491;-55
2023/12/27 06:28:40;;;;;;;11.67;4.30;;;;;;;5.24;79.48;95936.84;5134088;27;20438;-55
2023/12/27 06:31:09;;;;;;;4.67;4.27;;;;;;;5.82;78.16;95985.22;5122912;27;20812;-56
2023/12/27 06:33:38;;;;;;;7.70;3.40;;;;;;;6.16;77.29;95976.69;5133843;27;20450;-56
2023/12/27 06:36:08;;;;;;;4.07;3.87;;;;;;;6.25;74.61;95922.66;5133037;27;20543;-55
2023/12/27 06:38:36;;;;;;;2.77;2.57;;;;;;;7.00;74.05;95978.94;5133620;27;20438;-55
2023/12/27 06:41:05;;;;;;;2.57;2.47;;;;;;;7.13;73.78;95988.44;5133471;27;20498;-56
2023/12/27 06:43:35;;;;;;;12.47;4.73;;;;;;;7.38;72.87;95996.06;5133028;27;20470;-55
2023/12/27 06:46:04;;;;;;;3.17;2.97;;;;;;;7.16;72.56;95998.50;5104694;28;20467;-56
2023/12/27 06:48:32;;;;;;;4.07;3.87;;;;;;;6.46;73.70;96012.66;5132178;27;20807;-56
2023/12/27 06:51:03;;;;;;;2.63;2.53;;;;;;;5.65;76.46;96021.06;5131599;27;20467;-56
2023/12/27 06:53:31;;;;;;;3.73;2.60;;;;;;;5.52;75.17;96018.56;5124915;27;20431;-56
2023/12/27 06:56:01;;;;;;;5.60;1.33;;;;;;;5.84;72.77;96030.53;5115104;27;20467;-55
2023/12/27 06:58:30;;;;;;;2.30;2.10;;;;;;;6.36;70.87;96043.00;5131442;27;20442;-55
2023/12/27 07:01:00;;;;;;;1.60;1.50;;;;;;;6.58;69.87;96043.28;5131177;27;20450;-54
2023/12/27 07:03:29;;;;;;;4.50;1.20;;;;;;;6.92;71.62;96044.34;5131667;27;20840;-55
2023/12/27 07:05:57;;;;;;;2.23;2.03;;;;;;;6.87;70.87;96042.41;5131327;27;20522;-52
2023/12/27 07:08:27;;;;;;;3.27;3.17;;;;;;;7.31;69.19;96046.28;5130796;27;20434;-54
2023/12/27 07:10:55;;;;;;;1.00;1.00;;;;;;;7.44;67.89;96047.88;5130645;27;20543;-54
2023/12/27 07:13:24;;;;;;;1.97;1.87;;;;;;;6.91;68.56;95980.31;5132390;27;20438;-55
2023/12/27 07:15:53;;;;;;;7.30;2.43;;;;;;;6.88;70.57;96053.75;5116165;27;20474;-54
2023/12/27 07:18:23;;;;;;;3.00;1.47;;;;;;;7.93;69.32;96044.69;5129895;27;20475;-53
2023/12/27 07:20:51;;;;;;;4.53;2.10;;;;;;;8.55;66.80;96031.59;5130347;27;20495;-53
2023/12/27 07:23:20;;;;;;;9.27;3.10;;;;;;;9.43;64.93;96058.06;5130092;27;20441;-53
2023/12/27 07:25:49;;;;;;;7.30;4.30;;;;;;;9.84;61.98;96030.28;5129669;27;21056;-54
2023/12/27 07:28:17;;;;;;;2.50;1.10;;;;;;;10.41;100.00;96044.72;5127663;27;20507;-52
2023/12/27 07:30:46;;;;;;;7.20;3.40;;;;;;;10.55;85.70;96058.38;5130288;27;20971;-51
2023/12/27 07:33:15;;;;;;;3.23;3.13;;;;;;;10.25;65.58;96052.75;5128153;27;20474;-51
2023/12/27 07:35:47;;;;;;;8.23;3.83;;;;;;;10.26;63.59;96009.31;5126354;27;20527;-51
2023/12/27 07:38:16;;;;;;;10.03;3.50;;;;;;;11.14;63.08;96065.25;5124011;27;20461;-52
2023/12/27 07:40:46;;;;;;;17.57;4.60;;;;;;;11.80;61.03;96039.13;5112585;27;20551;-51
2023/12/27 07:43:15;;;;;;;4.30;2.57;;;;;;;11.81;60.15;96061.97;5113108;27;20470;-51
2023/12/27 07:45:44;;;;;;;3.17;3.03;;;;;;;12.35;59.53;96054.47;5112830;28;20470;-52
2023/12/27 07:48:13;;;;;;;2.47;2.30;;;;;;;13.51;57.79;96059.91;5118156;27;20442;-52
2023/12/27 07:50:42;;;;;;;11.73;7.60;;;;;;;12.98;56.02;96023.97;5115434;27;20431;-52
2023/12/27 07:53:12;;;;;;;10.23;5.57;;;;;;;12.98;56.17;96059.34;5122858;27;20453;-52
2023/12/27 07:55:41;;;;;;;7.10;6.50;;;;;;;13.29;56.05;96055.66;5116999;27;20470;-52
2023/12/27 07:58:09;;;;;;;6.53;4.87;;;;;;;13.54;55.90;96046.81;5132233;27;20859;-52
2023/12/27 08:00:38;;;;;;;8.20;6.33;;;;;;;13.80;54.87;96053.69;5104940;27;20433;-52
2023/12/27 08:03:08;;;;;;;8.47;5.37;;;;;;;13.77;55.52;96050.75;5131844;27;20521;-52
2023/12/27 08:05:37;;;;;;;7.13;4.50;;;;;;;14.07;53.69;96015.19;5132040;27;20437;-53
2023/12/27 08:08:06;;;;;;;10.23;5.87;;;;;;;14.65;51.28;96057.06;5131663;27;20447;-52
2023/12/27 08:10:36;;;;;;;4.60;4.07;;;;;;;15.45;50.64;96042.31;5131522;27;20427;-52
2023/12/27 08:13:07;;;;;;;13.07;5.90;;;;;;;15.91;50.35;96044.53;5125730;27;20439;-52
2023/12/27 08:15:36;;;;;;;11.03;4.77;;;;;;;15.47;50.65;96042.03;5131140;28;20477;-54
2023/12/27 08:18:05;;;;;;;16.03;5.00;;;;;;;15.48;48.95;96030.28;5132190;27;20795;-54
2023/12/27 08:20:34;;;;;;;5.50;5.10;;;;;;;15.78;49.60;96038.78;5127444;27;20448;-54
2023/12/27 08:23:02;;;;;;;14.70;4.73;;;;;;;15.95;49.16;96053.56;5129114;28;20430;-55
2023/12/27 08:25:31;;;;;;;7.80;3.00;;;;;;;15.54;49.85;96069.22;5131704;28;20523;-54
2023/12/27 08:28:01;;;;;;;5.20;4.90;;;;;;;15.66;49.22;96072.31;5132056;27;20473;-53
2023/12/27 08:30:30;;;;;;;4.60;4.30;;;;;;;14.77;50.60;96089.56;5135979;27;20773;-53
2023/12/27 08:32:59;;;;;;;3.63;3.33;;;;;;;13.54;52.96;96100.09;5134752;27;20462;-53
2023/12/27 08:35:28;;;;;;;4.97;4.00;;;;;;;13.00;54.11;96109.66;5135909;27;20948;-54
2023/12/27 08:37:57;;;;;;;2.40;2.30;;;;;;;13.86;52.21;96097.13;5132210;27;20500;-54
2023/12/27 08:40:26;;;;;;;2.50;2.30;;;;;;;14.14;52.32;96099.13;5135850;27;20469;-54
2023/12/27 08:42:55;;;;;;;1.70;1.60;;;;;;;15.54;50.66;96083.38;5136189;27;20487;-54
2023/12/27 08:45:25;;;;;;;1.67;1.57;;;;;;;15.88;48.45;96085.97;5125545;27;20955;-53
2023/12/27 08:47:53;;;;;;;3.83;3.67;;;;;;;15.98;48.92;96109.94;5126418;27;20443;-54
2023/12/27 08:50:22;;;;;;;4.70;3.50;;;;;;;15.85;48.98;96060.63;5128501;27;20442;-53
2023/12/27 08:52:51;;;;;;;3.20;2.60;;;;;;;15.99;48.42;96092.78;5133714;27;20473;-53
2023/12/27 08:55:20;;;;;;;6.77;3.77;;;;;;;15.60;48.71;96073.44;5133651;27;20442;-53
2023/12/27 08:57:48;;;;;;;11.43;3.30;;;;;;;16.18;50.82;96079.50;5135081;27;20474;-53
2023/12/27 09:00:18;;;;;;;3.07;1.80;;;;;;;16.96;48.74;96074.47;5133596;27;20430;-55
2023/12/27 09:02:49;;;;;;;2.90;2.57;;;;;;;16.93;47.29;96069.69;5135336;27;20434;-56
2023/12/27 09:05:17;;;;;;;6.60;4.37;;;;;;;17.29;47.01;96084.13;5134962;27;20462;-56
2023/12/27 09:07:46;;;;;;;9.50;5.30;;;;;;;17.74;44.60;96069.16;5132425;27;20430;-54
2023/12/27 09:10:15;;;;;;;4.53;2.40;;;;;;;18.11;45.50;96069.03;5121400;27;20434;-60
2023/12/27 09:12:44;;;;;;;7.80;3.33;;;;;;;18.21;45.15;96081.44;5134452;27;20441;-60
2023/12/27 09:15:14;;;;;;;9.53;4.00;;;;;;;18.02;43.18;96076.16;5134742;27;20462;-60
2023/12/27 09:17:43;;;;;;;7.70;4.00;;;;;;;17.73;43.58;96062.25;5134357;27;20950;-59
2023/12/27 09:20:13;;;;;;;12.33;2.60;;;;;;;17.80;44.23;96022.41;5125108;27;20474;-59
2023/12/27 09:22:41;;;;;;;6.87;2.53;;;;;;;18.30;43.31;96036.69;5133116;27;20973;-57
2023/12/27 09:25:12;;;;;;;4.10;2.60;;;;;;;17.43;43.55;95988.47;5119298;27;20434;-58
2023/12/27 09:27:41;;;;;;;3.50;2.67;;;;;;;18.49;42.80;96023.19;5127558;27;20482;-55
2023/12/27 09:30:10;;;;;;;1.57;1.47;;;;;;;18.70;41.97;96038.53;5130490;27;20470;-56
2023/12/27 09:32:42;;;;;;;3.13;2.93;;;;;;;19.36;42.12;96026.22;5127958;27;20534;-56
2023/12/27 09:35:13;;;;;;;2.60;2.40;;;;;;;19.80;41.22;96011.94;5111042;27;20446;-57
2023/12/27 09:37:42;;;;;;;1.73;1.60;;;;;;;20.26;40.28;96004.97;5113429;27;20907;-56
2023/12/27 09:40:12;;;;;;;2.40;1.07;;;;;;;20.54;40.72;95997.44;5111456;27;20518;-56
2023/12/27 09:42:43;;;;;;;1.57;1.47;;;;;;;20.59;39.87;96009.97;5132578;27;20438;-56
2023/12/27 09:45:17;;;;;;;1.77;1.13;;;;;;;20.51;39.50;96010.75;5132515;27;20446;-56
2023/12/27 09:47:47;;;;;;;1.37;1.27;;;;;;;20.05;39.63;95990.50;5132894;27;20938;-57
2023/12/27 09:50:19;;;;;;;4.80;1.07;;;;;;;19.83;38.88;96022.09;5131187;27;20857;-57
2023/12/27 09:52:49;;;;;;;2.50;2.40;;;;;;;20.25;39.38;96016.88;5109314;27;20484;-56
2023/12/27 09:55:17;;;;;;;0.90;0.60;;;;;;;21.28;38.19;96008.84;5131118;27;20458;-56
2023/12/27 09:57:49;;;;;;;0.83;0.83;;;;;;;21.41;38.50;96004.38;5129099;27;20478;-56
2023/12/27 10:00:21;;;;;;;0.97;0.93;;;;;;;21.22;37.86;96007.47;5132999;27;20447;-57
2023/12/27 10:02:54;;;;;;;1.23;0.87;;;;;;;21.38;37.58;95996.94;5131358;27;20474;-56
2023/12/27 10:05:34;;;;;;;2.53;2.33;;;;;;;20.97;38.26;95991.28;5131883;27;20491;-55
2023/12/27 10:08:02;;;;;;;1.63;1.53;;;;;;;21.33;38.97;95987.13;5131463;27;20525;-56
2023/12/27 10:10:33;;;;;;;1.70;1.10;;;;;;;21.94;38.20;95985.03;5130830;27;20438;-56
2023/12/27 10:13:03;;;;;;;1.33;0.77;;;;;;;21.63;37.41;95966.38;5129672;27;20550;-56
2023/12/27 10:15:32;;;;;;;3.20;0.70;;;;;;;21.67;37.52;95982.75;5128957;27;20455;-56
2023/12/27 10:18:01;;;;;;;0.97;0.90;;;;;;;21.25;36.98;95974.44;5129710;27;20470;-56
2023/12/27 10:20:37;;;;;;;4.43;1.13;;;;;;;20.72;37.80;95963.25;5128879;27;20457;-56
2023/12/27 10:23:06;;;;;;;2.03;1.93;;;;;;;21.41;36.91;95956.63;5117149;27;20434;-58
2023/12/27 10:25:36;;;;;;;0.60;0.53;;;;;;;21.17;37.57;95969.06;5118486;27;20493;-57
2023/12/27 10:28:05;;;;;;;0.70;0.70;;;;;;;22.22;37.64;95953.75;5117219;27;20444;-57
2023/12/27 10:30:33;;;;;;;1.67;1.57;;;;;;;21.94;37.59;95939.13;5117913;27;20440;-57
2023/12/27 10:33:03;;;;;;;0.73;0.73;;;;;;;22.28;36.17;95941.66;5114113;27;21059;-58
2023/12/27 10:35:35;;;;;;;1.33;1.33;;;;;;;22.73;35.84;95931.00;5111395;27;20444;-58
2023/12/27 10:38:06;;;;;;;0.70;0.57;;;;;;;23.03;35.96;95927.06;5114518;27;20481;-57
2023/12/27 10:40:36;;;;;;;1.70;1.60;;;;;;;23.01;35.08;95904.97;5131121;27;20472;-57
2023/12/27 10:43:04;;;;;;;1.37;1.27;;;;;;;23.04;34.57;95919.75;5131500;27;20491;-56
2023/12/27 10:45:33;;;;;;;0.70;0.60;;;;;;;23.25;35.13;95915.84;5130692;27;20430;-56
2023/12/27 10:48:04;;;;;;;1.33;1.23;;;;;;;22.86;34.86;95912.91;5127379;27;20430;-56
2023/12/27 10:50:35;;;;;;;4.63;1.43;;;;;;;23.16;34.59;95915.16;5126863;27;20430;-56
2023/12/27 10:53:06;;;;;;;1.33;1.30;;;;;;;22.93;34.78;95907.75;5124528;27;20439;-55
2023/12/27 10:55:37;;;;;;;1.00;0.67;;;;;;;23.37;34.62;95898.91;5101913;27;20449;-56
2023/12/27 10:58:07;;;;;;;0.87;0.60;;;;;;;24.04;34.14;95903.75;5129940;27;20474;-56
2023/12/27 11:00:36;;;;;;;1.03;0.93;;;;;;;23.79;33.11;95899.47;5130324;27;20570;-56
2023/12/27 11:03:09;;;;;;;0.70;0.70;;;;;;;23.91;33.84;95875.88;5130086;27;20445;-57
2023/12/27 11:05:41;;;;;;;2.03;0.63;;;;;;;24.30;34.08;95877.09;5132318;27;20430;-54
2023/12/27 11:08:11;;;;;;;0.93;0.90;;;;;;;24.14;33.28;95868.09;5121996;27;20448;-55
2023/12/27 11:10:40;;;;;;;0.80;0.50;;;;;;;24.10;34.26;95869.13;5128344;27;20446;-54
2023/12/27 11:13:10;;;;;;;0.67;0.53;;;;;;;25.10;32.89;95864.25;5126192;27;20447;-54
2023/12/27 11:15:44;;;;;;;0.87;0.87;;;;;;;24.28;33.97;95859.59;5129040;27;20438;-54
2023/12/27 11:18:13;;;;;;;0.80;0.80;;;;;;;24.56;32.59;95868.56;5126853;27;20469;-54
2023/12/27 11:20:47;;;;;;;2.30;1.70;;;;;;;24.28;33.03;95868.53;5127671;27;20444;-54
2023/12/27 11:23:16;;;;;;;1.73;1.03;;;;;;;23.96;33.59;95861.31;5128566;27;20434;-53
2023/12/27 11:25:44;;;;;;;1.20;1.10;;;;;;;24.75;33.79;95862.47;5126111;27;20438;-54
2023/12/27 11:28:13;;;;;;;2.20;0.90;;;;;;;24.23;33.07;95860.66;5130042;27;20431;-54
2023/12/27 11:30:43;;;;;;;1.00;0.93;;;;;;;23.80;33.15;95863.16;5130966;27;20514;-55
2023/12/27 11:33:18;;;;;;;2.13;2.00;;;;;;;24.00;33.07;95863.03;5114819;27;20446;-56
2023/12/27 11:35:48;;;;;;;0.90;0.90;;;;;;;24.18;33.48;95855.47;5125252;27;20907;-54
2023/12/27 11:38:20;;;;;;;8.53;1.23;;;;;;;24.29;33.59;95859.25;5131296;27;20470;-54
2023/12/27 11:40:49;;;;;;;1.37;1.27;;;;;;;24.20;33.77;95863.25;5131939;27;20442;-54
2023/12/27 11:43:21;;;;;;;0.83;0.83;;;;;;;24.24;32.41;95854.06;5131915;27;20438;-55
2023/12/27 11:46:00;;;;;;;8.53;0.80;;;;;;;24.26;32.11;95848.34;5132508;27;20499;-53
2023/12/27 11:48:34;;;;;;;0.50;0.50;;;;;;;24.72;32.37;95790.75;5132006;27;20446;-55